createdAt,value
2018-12-02T00:00:41.789Z,8.20
2018-12-02T00:03:14.136Z,7.70
2018-12-02T00:05:46.636Z,8.20
2018-12-02T00:08:19.081Z,7.70
2018-12-02T00:10:51.606Z,7.90
2018-12-02T00:13:23.584Z,7.90
2018-12-02T00:15:56.053Z,7.70
2018-12-02T00:18:28.405Z,8.00
2018-12-02T00:21:00.579Z,7.80
2018-12-02T00:23:32.989Z,7.40
2018-12-02T00:26:05.332Z,7.60
2018-12-02T00:28:38.006Z,7.40
2018-12-02T00:31:10.941Z,7.30
2018-12-02T00:33:43.102Z,7.30
2018-12-02T00:36:15.283Z,7.20
2018-12-02T00:38:47.542Z,7.10
2018-12-02T00:41:20.077Z,7.20
2018-12-02T00:43:52.431Z,7.00
2018-12-02T00:46:24.966Z,7.10
2018-12-02T00:48:57.700Z,7.00
2018-12-02T00:51:29.998Z,7.00
2018-12-02T00:54:02.597Z,7.10
2018-12-02T00:56:35.874Z,7.20
2018-12-02T00:59:08.398Z,7.00
2018-12-02T01:01:41.060Z,7.00
2018-12-02T01:04:13.570Z,7.10
2018-12-02T01:06:45.913Z,7.00
2018-12-02T01:09:18.379Z,6.90
2018-12-02T01:11:50.717Z,6.70
2018-12-02T01:14:23.238Z,6.70
2018-12-02T01:16:55.346Z,6.60
2018-12-02T01:19:27.765Z,6.70
2018-12-02T01:21:59.825Z,6.60
2018-12-02T01:24:32.232Z,6.80
2018-12-02T01:27:04.589Z,6.70
2018-12-02T01:29:36.951Z,6.60
2018-12-02T01:32:09.275Z,6.60
2018-12-02T01:34:41.901Z,6.70
2018-12-02T01:37:14.845Z,6.60
2018-12-02T01:39:47.393Z,6.40
2018-12-02T01:42:20.193Z,6.30
2018-12-02T01:44:52.616Z,6.40
2018-12-02T01:47:25.130Z,6.40
2018-12-02T01:49:57.335Z,6.40
2018-12-02T01:52:29.296Z,6.40
2018-12-02T01:55:01.491Z,6.40
2018-12-02T01:57:33.799Z,6.60
2018-12-02T02:00:13.437Z,6.70
2018-12-02T02:02:45.968Z,6.40
2018-12-02T02:05:19.544Z,6.40
2018-12-02T02:07:51.859Z,6.40
2018-12-02T02:10:30.044Z,6.50
2018-12-02T02:13:02.399Z,6.40
2018-12-02T02:15:34.730Z,6.30
2018-12-02T02:18:07.531Z,6.50
2018-12-02T02:20:40.110Z,6.60
2018-12-02T02:23:12.310Z,6.30
2018-12-02T02:25:44.648Z,6.60
2018-12-02T02:28:17.775Z,6.70
2018-12-02T02:30:50.474Z,6.50
2018-12-02T02:33:22.733Z,6.60
2018-12-02T02:35:55.161Z,6.50
2018-12-02T02:38:27.573Z,6.40
2018-12-02T02:41:00.171Z,6.40
2018-12-02T02:43:32.516Z,6.60
2018-12-02T02:46:04.940Z,6.50
2018-12-02T02:48:37.288Z,6.40
2018-12-02T02:51:09.680Z,6.40
2018-12-02T02:53:42.207Z,6.40
2018-12-02T02:56:14.414Z,6.60
2018-12-02T02:58:46.925Z,6.20
2018-12-02T03:01:19.365Z,6.60
2018-12-02T03:03:51.963Z,6.40
2018-12-02T03:06:24.328Z,6.40
2018-12-02T03:08:56.668Z,6.40
2018-12-02T03:11:29.363Z,6.30
2018-12-02T03:14:01.595Z,6.30
2018-12-02T03:16:33.854Z,6.30
2018-12-02T03:19:06.329Z,6.40
2018-12-02T03:21:38.905Z,6.30
2018-12-02T03:24:11.399Z,6.30
2018-12-02T03:26:43.684Z,6.40
2018-12-02T03:29:15.700Z,6.40
2018-12-02T03:31:53.488Z,6.40
2018-12-02T03:34:26.346Z,6.40
2018-12-02T03:36:58.890Z,6.40
2018-12-02T03:39:31.332Z,6.50
2018-12-02T03:42:05.112Z,6.50
2018-12-02T03:44:38.121Z,6.30
2018-12-02T03:47:11.464Z,6.30
2018-12-02T03:49:44.912Z,6.40
2018-12-02T03:52:18.269Z,6.40
2018-12-02T03:54:50.929Z,6.40
2018-12-02T03:57:22.825Z,6.40
2018-12-02T03:59:55.341Z,6.40
2018-12-02T04:02:28.010Z,6.40
2018-12-02T04:05:00.408Z,6.40
2018-12-02T04:07:32.722Z,6.30
2018-12-02T04:10:05.428Z,6.40
2018-12-02T04:12:38.438Z,6.40
2018-12-02T04:15:14.195Z,6.40
2018-12-02T04:17:46.929Z,6.40
2018-12-02T04:20:19.954Z,6.40
2018-12-02T04:22:53.239Z,6.30
2018-12-02T04:25:27.207Z,6.40
2018-12-02T04:27:59.356Z,6.40
2018-12-02T04:30:31.502Z,6.70
2018-12-02T04:33:03.307Z,6.50
2018-12-02T04:35:35.256Z,6.30
2018-12-02T04:38:07.234Z,6.60
2018-12-02T04:40:39.589Z,6.60
2018-12-02T04:43:12.197Z,6.50
2018-12-02T04:45:44.638Z,6.80
2018-12-02T04:48:16.951Z,6.50
2018-12-02T04:50:49.954Z,6.40
2018-12-02T04:53:21.999Z,6.50
2018-12-02T04:55:54.065Z,6.40
2018-12-02T04:58:27.255Z,6.40
2018-12-02T05:01:00.044Z,6.30
2018-12-02T05:03:32.798Z,6.30
2018-12-02T05:06:04.971Z,6.30
2018-12-02T05:08:37.555Z,6.40
2018-12-02T05:11:09.828Z,6.40
2018-12-02T05:13:42.683Z,6.70
2018-12-02T05:16:15.723Z,6.40
2018-12-02T05:18:48.026Z,6.20
2018-12-02T05:21:20.404Z,6.40
2018-12-02T05:23:53.622Z,6.30
2018-12-02T05:26:25.931Z,6.40
2018-12-02T05:28:58.091Z,6.40
2018-12-02T05:31:30.607Z,6.40
2018-12-02T05:34:02.960Z,6.40
2018-12-02T05:36:35.712Z,6.40
2018-12-02T05:39:10.262Z,6.70
2018-12-02T05:41:47.036Z,6.30
2018-12-02T05:44:19.184Z,6.30
2018-12-02T05:46:52.555Z,6.30
2018-12-02T05:49:24.671Z,6.40
2018-12-02T05:51:56.858Z,6.40
2018-12-02T05:54:28.747Z,6.40
2018-12-02T05:57:00.616Z,6.40
2018-12-02T05:59:33.134Z,6.40
2018-12-02T06:02:05.292Z,6.30
2018-12-02T06:04:37.474Z,6.40
2018-12-02T06:07:09.809Z,6.40
2018-12-02T06:09:42.206Z,6.30
2018-12-02T06:12:14.120Z,6.30
2018-12-02T06:14:46.024Z,6.40
2018-12-02T06:17:18.408Z,6.40
2018-12-02T06:19:51.002Z,6.40
2018-12-02T06:22:22.952Z,6.30
2018-12-02T06:24:55.314Z,6.30
2018-12-02T06:27:27.920Z,6.30
2018-12-02T06:30:00.487Z,6.30
2018-12-02T06:32:33.044Z,6.40
2018-12-02T06:35:05.629Z,6.30
2018-12-02T06:37:37.951Z,6.30
2018-12-02T06:40:14.171Z,6.40
2018-12-02T06:42:46.551Z,6.50
2018-12-02T06:45:18.999Z,6.40
2018-12-02T06:47:51.120Z,6.30
2018-12-02T06:50:28.903Z,6.40
2018-12-02T06:53:01.415Z,6.30
2018-12-02T06:55:52.723Z,6.30
2018-12-02T06:58:33.135Z,6.50
2018-12-02T07:01:16.268Z,6.40
2018-12-02T07:04:02.842Z,6.20
2018-12-02T07:06:35.092Z,6.30
2018-12-02T07:09:09.112Z,6.40
2018-12-02T07:11:41.476Z,6.30
2018-12-02T07:14:13.766Z,6.30
2018-12-02T07:16:46.652Z,6.40
2018-12-02T07:19:22.849Z,6.30
2018-12-02T07:21:59.089Z,6.40
2018-12-02T07:24:34.625Z,6.40
2018-12-02T07:27:07.260Z,6.30
2018-12-02T07:29:40.030Z,6.40
2018-12-02T07:32:12.383Z,6.30
2018-12-02T07:34:44.932Z,6.40
2018-12-02T07:37:19.195Z,6.30
2018-12-02T07:40:12.012Z,6.30
2018-12-02T07:42:44.571Z,6.40
2018-12-02T07:45:16.959Z,6.20
2018-12-02T07:47:49.415Z,6.30
2018-12-02T07:50:22.071Z,6.30
2018-12-02T07:52:54.228Z,6.40
2018-12-02T07:55:27.008Z,6.30
2018-12-02T07:57:59.436Z,6.30
2018-12-02T08:00:31.705Z,6.30
2018-12-02T08:03:05.485Z,6.30
2018-12-02T08:05:38.003Z,6.40
2018-12-02T08:08:10.455Z,6.50
2018-12-02T08:10:42.769Z,6.40
2018-12-02T08:13:15.182Z,6.30
2018-12-02T08:15:47.465Z,6.40
2018-12-02T08:18:19.505Z,6.30
2018-12-02T08:20:51.669Z,6.20
2018-12-02T08:23:24.047Z,6.30
2018-12-02T08:25:56.416Z,6.30
2018-12-02T08:28:28.940Z,6.50
2018-12-02T08:31:01.312Z,6.40
2018-12-02T08:33:33.582Z,6.30
2018-12-02T08:36:05.999Z,6.20
2018-12-02T08:38:38.164Z,6.40
2018-12-02T08:41:10.493Z,6.30
2018-12-02T08:43:42.918Z,6.30
2018-12-02T08:46:15.231Z,6.30
2018-12-02T08:48:47.772Z,6.20
2018-12-02T08:51:20.046Z,6.40
2018-12-02T08:53:52.380Z,6.40
2018-12-02T08:56:24.352Z,6.30
2018-12-02T08:58:56.641Z,6.40
2018-12-02T09:01:28.727Z,6.30
2018-12-02T09:04:01.289Z,6.30
2018-12-02T09:06:33.676Z,6.30
2018-12-02T09:09:07.944Z,6.30
2018-12-02T09:11:40.060Z,6.30
2018-12-02T09:14:12.555Z,6.40
2018-12-02T09:16:44.893Z,6.40
2018-12-02T09:19:17.145Z,6.30
2018-12-02T09:21:49.434Z,6.20
2018-12-02T09:24:21.598Z,6.30
2018-12-02T09:26:53.821Z,6.30
2018-12-02T09:29:26.210Z,6.30
2018-12-02T09:31:58.391Z,6.10
2018-12-02T09:34:30.638Z,6.30
2018-12-02T09:37:03.004Z,6.10
2018-12-02T09:39:35.325Z,6.00
2018-12-02T09:42:07.705Z,6.30
2018-12-02T09:44:40.071Z,6.30
2018-12-02T09:47:12.347Z,6.50
2018-12-02T09:49:45.142Z,6.30
2018-12-02T09:52:17.335Z,6.10
2018-12-02T09:54:49.469Z,6.00
2018-12-02T09:57:22.126Z,6.40
2018-12-02T09:59:54.248Z,6.10
2018-12-02T10:02:26.289Z,6.10
2018-12-02T10:04:58.587Z,6.10
2018-12-02T10:07:30.807Z,6.10
2018-12-02T10:10:03.140Z,6.40
2018-12-02T10:12:35.160Z,6.30
2018-12-02T10:15:08.426Z,6.00
2018-12-02T10:17:40.823Z,6.20
2018-12-02T10:20:15.750Z,6.10
2018-12-02T10:22:48.314Z,6.10
2018-12-02T10:25:21.200Z,6.10
2018-12-02T10:27:53.415Z,6.30
2018-12-02T10:30:26.600Z,6.00
2018-12-02T10:32:59.354Z,6.30
2018-12-02T10:35:31.722Z,6.30
2018-12-02T10:38:03.737Z,5.90
2018-12-02T10:40:35.988Z,6.20
2018-12-02T10:43:08.643Z,6.30
2018-12-02T10:45:40.917Z,6.20
2018-12-02T10:48:13.807Z,6.20
2018-12-02T10:50:46.302Z,6.40
2018-12-02T10:53:20.792Z,6.30
2018-12-02T10:55:53.999Z,6.40
2018-12-02T10:58:27.920Z,6.30
2018-12-02T11:01:05.985Z,6.40
2018-12-02T11:03:38.596Z,6.40
2018-12-02T11:06:10.759Z,6.50
2018-12-02T11:08:42.739Z,6.30
2018-12-02T11:11:15.328Z,6.30
2018-12-02T11:13:47.344Z,6.40
2018-12-02T11:16:19.328Z,6.30
2018-12-02T11:18:51.259Z,6.30
2018-12-02T11:21:23.394Z,6.30
2018-12-02T11:23:55.885Z,6.40
2018-12-02T11:26:28.272Z,6.30
2018-12-02T11:29:00.527Z,6.20
2018-12-02T11:31:33.046Z,6.30
2018-12-02T11:34:05.368Z,6.30
2018-12-02T11:36:37.458Z,6.40
2018-12-02T11:39:11.797Z,6.40
2018-12-02T11:41:43.962Z,6.30
2018-12-02T11:44:16.665Z,6.40
2018-12-02T11:46:48.983Z,6.50
2018-12-02T11:49:21.275Z,6.40
2018-12-02T11:51:53.806Z,6.40
2018-12-02T11:54:26.136Z,6.30
2018-12-02T11:56:57.908Z,6.30
2018-12-02T11:59:30.092Z,6.20
2018-12-02T12:02:07.522Z,6.30
2018-12-02T12:04:35.476Z,6.20
2018-12-02T12:07:07.855Z,6.30
2018-12-02T12:09:40.051Z,6.20
2018-12-02T12:12:12.093Z,6.00
2018-12-02T12:14:44.402Z,6.00
2018-12-02T12:17:16.664Z,6.00
2018-12-02T12:19:48.946Z,6.00
2018-12-02T12:22:21.636Z,6.10
2018-12-02T12:24:54.115Z,5.90
2018-12-02T12:27:26.391Z,6.00
2018-12-02T12:29:58.712Z,6.20
2018-12-02T12:32:30.842Z,6.00
2018-12-02T12:35:03.134Z,6.10
2018-12-02T12:37:35.486Z,5.90
2018-12-02T12:40:25.872Z,6.00
2018-12-02T12:43:01.178Z,5.80
2018-12-02T12:45:33.563Z,5.90
2018-12-02T12:48:06.021Z,6.00
2018-12-02T12:50:38.107Z,6.00
2018-12-02T12:53:10.333Z,6.00
2018-12-02T12:55:42.838Z,6.00
2018-12-02T12:58:16.185Z,6.00
2018-12-02T13:00:48.364Z,6.00
2018-12-02T13:03:20.602Z,6.00
2018-12-02T13:05:52.717Z,6.00
2018-12-02T13:08:24.827Z,5.60
2018-12-02T13:10:56.939Z,6.00
2018-12-02T13:13:29.731Z,5.80
2018-12-02T13:16:02.200Z,5.80
2018-12-02T13:18:34.615Z,6.00
2018-12-02T13:21:06.726Z,6.00
2018-12-02T13:23:39.074Z,5.70
2018-12-02T13:26:11.183Z,5.70
2018-12-02T13:28:43.639Z,5.70
2018-12-02T13:31:15.745Z,5.70
2018-12-02T13:33:47.944Z,5.70
2018-12-02T13:36:20.118Z,5.60
2018-12-02T13:38:52.155Z,5.70
2018-12-02T13:41:24.574Z,5.60
2018-12-02T13:43:57.043Z,5.80
2018-12-02T13:46:29.354Z,5.80
2018-12-02T13:49:01.645Z,5.70
2018-12-02T13:51:33.755Z,5.80
2018-12-02T13:54:10.489Z,5.80
2018-12-02T13:56:42.400Z,5.70
2018-12-02T13:59:14.858Z,5.60
2018-12-02T14:01:48.132Z,6.10
2018-12-02T14:04:20.378Z,5.80
2018-12-02T14:06:52.721Z,5.80
2018-12-02T14:09:24.812Z,5.60
2018-12-02T14:11:57.363Z,5.70
2018-12-02T14:14:29.690Z,5.70
2018-12-02T14:17:07.788Z,5.60
2018-12-02T14:19:40.224Z,5.60
2018-12-02T14:22:12.709Z,5.60
2018-12-02T14:24:45.287Z,5.70
2018-12-02T14:27:17.346Z,5.70
2018-12-02T14:29:52.320Z,5.70
2018-12-02T14:32:25.103Z,6.00
2018-12-02T14:34:57.404Z,5.70
2018-12-02T14:37:29.841Z,6.00
2018-12-02T14:40:02.174Z,5.70
2018-12-02T14:42:34.508Z,5.80
2018-12-02T14:45:07.362Z,6.00
2018-12-02T14:47:39.867Z,6.00
2018-12-02T14:50:14.381Z,6.00
2018-12-02T14:52:47.251Z,6.10
2018-12-02T14:55:20.609Z,6.10
2018-12-02T14:57:52.834Z,6.00
2018-12-02T15:00:25.123Z,6.00
2018-12-02T15:02:57.619Z,6.00
2018-12-02T15:05:29.826Z,6.00
2018-12-02T15:08:01.922Z,6.00
2018-12-02T15:10:34.316Z,6.00
2018-12-02T15:13:07.310Z,5.90
2018-12-02T15:15:39.555Z,6.00
2018-12-02T15:18:11.417Z,5.60
2018-12-02T15:20:43.482Z,5.70
2018-12-02T15:23:15.795Z,5.70
2018-12-02T15:25:48.021Z,5.70
2018-12-02T15:28:20.346Z,6.00
2018-12-02T15:30:52.371Z,6.00
2018-12-02T15:33:24.818Z,5.80
2018-12-02T15:35:57.093Z,5.90
2018-12-02T15:38:29.553Z,5.70
2018-12-02T15:41:02.008Z,6.00
2018-12-02T15:43:34.145Z,6.00
2018-12-02T15:46:06.153Z,5.70
2018-12-02T15:48:39.211Z,5.80
2018-12-02T15:51:11.296Z,5.70
2018-12-02T15:53:43.842Z,6.10
2018-12-02T15:56:16.354Z,6.00
2018-12-02T15:58:49.584Z,6.00
2018-12-02T16:01:22.306Z,6.00
2018-12-02T16:03:54.593Z,5.80
2018-12-02T16:06:27.011Z,6.00
2018-12-02T16:08:59.130Z,5.90
2018-12-02T16:11:31.471Z,5.70
2018-12-02T16:14:03.607Z,5.70
2018-12-02T16:16:36.223Z,5.80
2018-12-02T16:19:08.322Z,5.70
2018-12-02T16:21:40.948Z,5.80
2018-12-02T16:24:13.407Z,5.80
2018-12-02T16:26:45.606Z,5.70
2018-12-02T16:29:17.779Z,5.70
2018-12-02T16:31:50.195Z,5.70
2018-12-02T16:34:22.344Z,5.90
2018-12-02T16:36:54.594Z,5.70
2018-12-02T16:39:26.959Z,6.00
2018-12-02T16:41:59.150Z,6.10
2018-12-02T16:44:31.209Z,6.00
2018-12-02T16:47:03.794Z,5.90
2018-12-02T16:49:36.133Z,6.00
2018-12-02T16:52:08.584Z,5.90
2018-12-02T16:54:40.593Z,6.10
2018-12-02T16:57:14.154Z,6.10
2018-12-02T16:59:47.032Z,6.30
2018-12-02T17:02:19.283Z,6.00
2018-12-02T17:04:51.463Z,6.30
2018-12-02T17:07:23.950Z,6.40
2018-12-02T17:09:56.349Z,6.40
2018-12-02T17:12:28.361Z,6.40
2018-12-02T17:15:00.384Z,6.20
2018-12-02T17:17:32.510Z,6.60
2018-12-02T17:20:04.900Z,6.70
2018-12-02T17:22:37.334Z,6.80
2018-12-02T17:25:11.459Z,6.70
2018-12-02T17:27:44.231Z,6.70
2018-12-02T17:30:19.761Z,6.70
2018-12-02T17:32:52.097Z,6.60
2018-12-02T17:35:25.463Z,6.70
2018-12-02T17:37:57.828Z,6.80
2018-12-02T17:40:30.090Z,6.80
2018-12-02T17:43:02.335Z,6.70
2018-12-02T17:45:34.480Z,6.60
2018-12-02T17:48:06.895Z,6.70
2018-12-02T17:50:39.505Z,6.70
2018-12-02T17:53:13.642Z,7.10
2018-12-02T17:55:46.115Z,6.70
2018-12-02T17:58:19.064Z,7.10
2018-12-02T18:00:51.154Z,7.00
2018-12-02T18:03:28.618Z,6.70
2018-12-02T18:06:01.226Z,7.00
2018-12-02T18:08:33.359Z,6.60
2018-12-02T18:11:05.537Z,6.80
2018-12-02T18:13:37.773Z,6.70
2018-12-02T18:16:10.116Z,7.00
2018-12-02T18:18:42.319Z,7.10
2018-12-02T18:21:14.626Z,6.60
2018-12-02T18:23:47.052Z,6.70
2018-12-02T18:26:19.527Z,6.80
2018-12-02T18:28:52.176Z,7.10
2018-12-02T18:31:24.191Z,6.90
2018-12-02T18:33:56.393Z,7.00
2018-12-02T18:36:32.595Z,7.00
2018-12-02T18:39:06.093Z,7.00
2018-12-02T18:41:41.484Z,7.10
2018-12-02T18:44:16.043Z,7.00
2018-12-02T18:46:48.534Z,7.00
2018-12-02T18:49:21.199Z,7.40
2018-12-02T18:51:52.927Z,7.40
2018-12-02T18:54:25.740Z,7.60
2018-12-02T18:56:58.744Z,7.80
2018-12-02T18:59:31.898Z,8.10
2018-12-02T19:02:04.226Z,8.50
2018-12-02T19:04:36.393Z,8.90
2018-12-02T19:07:08.796Z,9.40
2018-12-02T19:09:40.967Z,9.80
2018-12-02T19:12:13.303Z,10.30
2018-12-02T19:14:45.758Z,10.70
2018-12-02T19:17:18.072Z,10.70
2018-12-02T19:19:50.082Z,10.60
2018-12-02T19:22:22.444Z,10.50
2018-12-02T19:24:54.837Z,10.50
2018-12-02T19:27:27.132Z,9.90
2018-12-02T19:29:59.548Z,10.00
2018-12-02T19:32:31.506Z,9.80
2018-12-02T19:35:03.704Z,9.90
2018-12-02T19:37:35.770Z,9.50
2018-12-02T19:40:11.160Z,9.80
2018-12-02T19:42:44.155Z,9.80
2018-12-02T19:45:19.448Z,9.80
2018-12-02T19:47:51.949Z,9.80
2018-12-02T19:50:24.199Z,9.90
2018-12-02T19:52:56.732Z,10.00
2018-12-02T19:55:28.941Z,10.10
2018-12-02T19:58:02.174Z,10.20
2018-12-02T20:00:39.319Z,10.20
2018-12-02T20:03:13.010Z,10.30
2018-12-02T20:05:45.471Z,10.10
2018-12-02T20:08:19.105Z,10.00
2018-12-02T20:10:54.409Z,9.90
2018-12-02T20:13:26.729Z,9.80
2018-12-02T20:16:03.520Z,9.80
2018-12-02T20:18:35.988Z,9.60
2018-12-02T20:21:08.793Z,9.70
2018-12-02T20:23:45.543Z,9.70
2018-12-02T20:26:18.074Z,9.70
2018-12-02T20:28:52.761Z,9.70
2018-12-02T20:31:27.357Z,9.70
2018-12-02T20:33:59.932Z,9.90
2018-12-02T20:36:32.311Z,9.90
2018-12-02T20:39:06.211Z,9.80
2018-12-02T20:41:38.548Z,9.70
2018-12-02T20:44:10.756Z,9.60
2018-12-02T20:46:43.171Z,9.50
2018-12-02T20:49:15.681Z,9.50
2018-12-02T20:51:48.246Z,9.40
2018-12-02T20:54:20.685Z,9.40
2018-12-02T20:56:53.162Z,9.30
2018-12-02T20:59:25.772Z,9.30
2018-12-02T21:01:58.219Z,9.50
2018-12-02T21:04:30.579Z,9.20
2018-12-02T21:07:03.134Z,9.00
2018-12-02T21:09:35.343Z,9.00
2018-12-02T21:12:07.883Z,8.90
2018-12-02T21:14:40.110Z,8.80
2018-12-02T21:17:12.305Z,9.00
2018-12-02T21:19:44.598Z,9.10
2018-12-02T21:22:16.840Z,9.10
2018-12-02T21:24:49.496Z,9.00
2018-12-02T21:27:22.061Z,9.00
2018-12-02T21:29:54.221Z,9.00
2018-12-02T21:32:26.422Z,8.90
2018-12-02T21:34:58.810Z,9.10
2018-12-02T21:37:31.107Z,9.10
2018-12-02T21:40:03.417Z,9.00
2018-12-02T21:42:35.909Z,9.40
2018-12-02T21:45:10.219Z,9.40
2018-12-02T21:47:43.441Z,9.50
2018-12-02T21:50:18.439Z,9.20
2018-12-02T21:52:50.904Z,9.10
2018-12-02T21:55:23.270Z,9.00
2018-12-02T21:57:55.668Z,9.00
2018-12-02T22:00:33.218Z,8.80
2018-12-02T22:03:05.677Z,8.80
2018-12-02T22:05:37.986Z,8.50
2018-12-02T22:08:10.201Z,8.70
2018-12-02T22:10:42.479Z,8.70
2018-12-02T22:13:14.845Z,8.60
2018-12-02T22:15:47.332Z,8.60
2018-12-02T22:18:19.713Z,8.40
2018-12-02T22:20:52.323Z,8.20
2018-12-02T22:23:24.851Z,8.30
2018-12-02T22:25:57.521Z,8.30
2018-12-02T22:28:29.885Z,8.30
2018-12-02T22:31:02.299Z,7.80
2018-12-02T22:33:36.577Z,7.90
2018-12-02T22:36:14.040Z,8.10
2018-12-02T22:38:42.808Z,8.30
2018-12-02T22:41:15.469Z,8.20
2018-12-02T22:43:47.783Z,8.00
2018-12-02T22:46:20.601Z,8.30
2018-12-02T22:48:52.891Z,8.10
2018-12-02T22:51:26.162Z,8.30
2018-12-02T22:53:58.606Z,8.30
2018-12-02T22:56:31.142Z,8.30
2018-12-02T22:59:03.323Z,8.10
2018-12-02T23:03:46.009Z,8.30
2018-12-02T23:06:18.626Z,8.20
2018-12-02T23:08:50.514Z,8.30
2018-12-02T23:11:23.154Z,8.40
2018-12-02T23:13:55.453Z,8.70
2018-12-02T23:16:27.909Z,8.60
2018-12-02T23:19:00.359Z,8.60
2018-12-02T23:21:32.449Z,8.50
2018-12-02T23:24:04.942Z,8.60
2018-12-02T23:26:36.751Z,8.80
2018-12-02T23:29:09.333Z,8.60
2018-12-02T23:31:41.513Z,8.70
2018-12-02T23:34:14.797Z,8.60
2018-12-02T23:36:46.840Z,8.60
2018-12-02T23:39:19.368Z,8.70
2018-12-02T23:41:51.800Z,8.60
2018-12-02T23:44:24.244Z,8.40
2018-12-02T23:46:56.826Z,8.10
2018-12-02T23:49:29.173Z,7.90
2018-12-02T23:52:01.828Z,8.20
2018-12-02T23:54:34.117Z,8.20
2018-12-02T23:57:06.369Z,7.70
2018-12-02T23:59:38.870Z,7.80
